Time;durP1;ratioP1;P1;durP2;ratioP2;P2;SDS_P1;SDS_P2;PMS_P1;PMS_P2;Temp;Humidity;BMP_temperature;BMP_pressure;BME280_temperature;BME280_humidity;BME280_pressure;Samples;Min_cycle;Max_cycle;Signal;HPM_P1;HPM_P2
2021/04/04 00:01:33;;;;;;;5.70;3.60;;;11.00;36.10;;;;;;5071865;28;20681;-51
2021/04/04 00:03:59;;;;;;;6.80;4.50;;;10.90;35.90;;;;;;5072752;28;21098;-51
2021/04/04 00:06:26;;;;;;;8.27;4.80;;;10.90;36.00;;;;;;5071884;28;20625;-51
2021/04/04 00:08:53;;;;;;;5.30;3.97;;;10.80;35.90;;;;;;5071740;28;21185;-51
2021/04/04 00:11:20;;;;;;;3.70;3.13;;;10.70;36.60;;;;;;5072418;28;20686;-51
2021/04/04 00:13:46;;;;;;;4.63;2.93;;;10.70;36.30;;;;;;5072206;28;20710;-50
2021/04/04 00:16:14;;;;;;;4.17;3.20;;;10.60;36.60;;;;;;5071870;28;20628;-51
2021/04/04 00:18:41;;;;;;;13.43;3.77;;;10.50;36.70;;;;;;5071961;28;21008;-50
2021/04/04 00:21:08;;;;;;;5.30;3.83;;;10.50;36.80;;;;;;5071974;28;20617;-50
2021/04/04 00:23:35;;;;;;;7.00;4.87;;;10.40;36.80;;;;;;5071797;28;20637;-51
2021/04/04 00:26:02;;;;;;;9.13;3.83;;;10.40;37.00;;;;;;5072417;28;20652;-51
2021/04/04 00:28:28;;;;;;;6.90;4.63;;;10.30;37.10;;;;;;5071729;28;20633;-51
2021/04/04 00:30:55;;;;;;;8.10;3.47;;;10.30;37.10;;;;;;5072220;28;20713;-51
2021/04/04 00:33:23;;;;;;;6.13;4.03;;;10.20;37.10;;;;;;5061868;28;20707;-51
2021/04/04 00:35:49;;;;;;;3.03;2.53;;;10.10;37.00;;;;;;5069181;28;20669;-51
2021/04/04 00:38:16;;;;;;;5.80;3.80;;;10.10;37.20;;;;;;5071978;28;20663;-51
2021/04/04 00:40:43;;;;;;;8.97;4.10;;;10.00;37.10;;;;;;5072056;28;20632;-52
2021/04/04 00:43:10;;;;;;;4.87;3.90;;;10.00;37.30;;;;;;5071840;28;20682;-51
2021/04/04 00:45:37;;;;;;;6.57;3.30;;;9.90;38.20;;;;;;5071582;28;20697;-51
2021/04/04 00:48:05;;;;;;;5.40;3.53;;;9.90;38.20;;;;;;5070968;28;21181;-51
2021/04/04 00:50:33;;;;;;;7.17;3.43;;;9.90;38.40;;;;;;5077645;28;20628;-51
2021/04/04 00:53:00;;;;;;;7.40;3.80;;;9.90;38.40;;;;;;5083944;28;20627;-50
2021/04/04 00:55:27;;;;;;;4.20;3.07;;;10.00;37.50;;;;;;5079554;28;20672;-51
2021/04/04 00:57:54;;;;;;;6.57;3.33;;;10.00;37.40;;;;;;5071437;28;20624;-52
2021/04/04 01:00:23;;;;;;;7.83;3.80;;;9.90;38.20;;;;;;5070718;28;21189;-51
2021/04/04 01:02:50;;;;;;;4.27;3.87;;;9.90;38.40;;;;;;5071781;28;21037;-50
2021/04/04 01:05:22;;;;;;;6.40;3.70;;;9.90;38.50;;;;;;5071733;28;21206;-49
2021/04/04 01:07:50;;;;;;;5.97;3.60;;;9.80;38.90;;;;;;5070567;28;20642;-49
2021/04/04 01:10:17;;;;;;;5.63;5.03;;;9.80;38.60;;;;;;5071717;28;20625;-50
2021/04/04 01:12:48;;;;;;;6.77;4.30;;;9.80;38.90;;;;;;5071062;28;21163;-50
2021/04/04 01:15:16;;;;;;;6.53;3.70;;;9.80;38.80;;;;;;5071118;28;20677;-50
2021/04/04 01:17:44;;;;;;;8.90;5.97;;;9.80;38.70;;;;;;5071121;28;21025;-50
2021/04/04 01:20:15;;;;;;;3.87;3.13;;;9.80;38.90;;;;;;5071551;28;21177;-50
2021/04/04 01:23:18;;;;;;;9.33;4.40;;;9.80;39.00;;;;;;5071471;28;21235;-50
2021/04/04 01:25:48;;;;;;;7.13;3.63;;;9.70;39.00;;;;;;5070898;28;20656;-51
2021/04/04 01:28:18;;;;;;;6.27;3.37;;;9.80;39.30;;;;;;5070585;28;20631;-50
2021/04/04 01:30:46;;;;;;;4.30;2.90;;;9.80;39.70;;;;;;5070914;28;20616;-50
2021/04/04 01:33:14;;;;;;;7.63;3.80;;;9.80;39.20;;;;;;5071138;28;20698;-50
2021/04/04 01:35:44;;;;;;;9.90;3.70;;;9.90;39.20;;;;;;5070657;28;21189;-51
2021/04/04 01:38:12;;;;;;;6.50;3.90;;;9.80;39.10;;;;;;5070623;28;20664;-51
2021/04/04 01:40:40;;;;;;;6.00;3.77;;;9.80;39.20;;;;;;5067367;28;20640;-50
2021/04/04 01:43:07;;;;;;;6.43;4.53;;;9.80;39.30;;;;;;5069221;28;20693;-51
2021/04/04 01:45:35;;;;;;;8.40;3.77;;;9.80;39.20;;;;;;5079155;28;20647;-51
2021/04/04 01:48:03;;;;;;;4.40;3.57;;;9.70;39.30;;;;;;5080140;28;20659;-50
2021/04/04 01:50:30;;;;;;;6.13;3.03;;;9.60;39.30;;;;;;5091078;28;20982;-49
2021/04/04 01:52:56;;;;;;;5.07;3.57;;;9.60;39.40;;;;;;5086910;28;20661;-50
2021/04/04 01:55:23;;;;;;;5.10;3.67;;;9.60;39.40;;;;;;5071034;28;20672;-49
2021/04/04 01:57:50;;;;;;;5.60;3.60;;;9.60;39.60;;;;;;5070974;28;20659;-50
2021/04/04 02:00:18;;;;;;;5.23;2.93;;;9.60;39.70;;;;;;5070884;28;20658;-50
2021/04/04 02:02:46;;;;;;;7.57;3.80;;;9.60;39.70;;;;;;5070644;28;20685;-50
2021/04/04 02:05:13;;;;;;;7.70;4.10;;;9.60;39.50;;;;;;5070548;28;20660;-50
2021/04/04 02:07:42;;;;;;;6.10;3.40;;;9.60;39.40;;;;;;5067838;28;20621;-50
2021/04/04 02:10:10;;;;;;;4.60;3.80;;;9.60;39.50;;;;;;5074361;28;21000;-50
2021/04/04 02:12:37;;;;;;;6.20;3.80;;;9.50;39.70;;;;;;5082548;28;21014;-50
2021/04/04 02:15:06;;;;;;;4.53;3.40;;;9.50;39.80;;;;;;5084551;28;20657;-50
2021/04/04 02:17:33;;;;;;;5.23;3.67;;;9.40;39.90;;;;;;5074956;28;20639;-50
2021/04/04 02:20:01;;;;;;;6.10;4.17;;;9.40;40.10;;;;;;5080443;28;20684;-50
2021/04/04 02:22:28;;;;;;;7.57;3.30;;;9.40;40.20;;;;;;5071946;28;20631;-50
2021/04/04 02:24:54;;;;;;;7.97;4.43;;;9.40;40.50;;;;;;5062415;28;20741;-50
2021/04/04 02:27:21;;;;;;;5.07;3.13;;;9.40;40.50;;;;;;5063621;28;21030;-50
2021/04/04 02:29:48;;;;;;;5.90;4.07;;;9.40;40.40;;;;;;5064278;28;20628;-51
2021/04/04 02:32:14;;;;;;;4.93;3.67;;;9.40;40.30;;;;;;5068327;28;21186;-49
2021/04/04 02:34:41;;;;;;;9.13;4.57;;;9.40;40.50;;;;;;5065935;28;20667;-49
2021/04/04 02:37:11;;;;;;;7.70;4.50;;;9.30;40.50;;;;;;5054225;28;20677;-51
2021/04/04 02:39:40;;;;;;;4.50;4.10;;;9.30;40.70;;;;;;5073514;28;20682;-50
2021/04/04 02:42:07;;;;;;;6.07;4.03;;;9.20;40.70;;;;;;5066638;28;20639;-49
2021/04/04 02:44:33;;;;;;;5.67;4.40;;;9.20;40.90;;;;;;5074572;28;20751;-49
2021/04/04 02:47:03;;;;;;;7.70;3.60;;;9.10;40.90;;;;;;5083945;28;20680;-50
2021/04/04 02:49:31;;;;;;;6.20;3.20;;;9.10;40.90;;;;;;5085037;28;21035;-50
2021/04/04 02:52:00;;;;;;;8.73;4.30;;;9.10;41.10;;;;;;5075090;28;20665;-50
2021/04/04 02:54:28;;;;;;;6.63;3.73;;;9.00;41.10;;;;;;5080339;28;20718;-50
2021/04/04 02:56:56;;;;;;;7.43;4.50;;;9.00;41.30;;;;;;5076842;28;20622;-51
2021/04/04 02:59:24;;;;;;;6.33;3.97;;;9.00;41.30;;;;;;5075127;28;20618;-50
2021/04/04 03:01:51;;;;;;;5.60;3.50;;;9.00;41.30;;;;;;5061058;28;20682;-50
2021/04/04 03:04:18;;;;;;;4.40;4.00;;;8.90;41.30;;;;;;5064391;28;20665;-50
2021/04/04 03:06:45;;;;;;;4.53;3.47;;;8.90;41.40;;;;;;5079443;28;20704;-50
2021/04/04 03:09:13;;;;;;;5.23;3.80;;;8.90;41.50;;;;;;5083836;28;20997;-50
2021/04/04 03:11:40;;;;;;;10.67;5.13;;;8.90;41.50;;;;;;5078483;28;21164;-49
2021/04/04 03:14:07;;;;;;;7.40;4.50;;;8.90;41.50;;;;;;5084643;28;20647;-50
2021/04/04 03:16:34;;;;;;;9.00;4.53;;;8.90;41.40;;;;;;5075849;28;20662;-50
2021/04/04 03:19:01;;;;;;;5.40;4.23;;;8.90;41.30;;;;;;5081739;28;20633;-51
2021/04/04 03:21:28;;;;;;;10.43;5.00;;;8.90;41.30;;;;;;5073360;28;20637;-49
2021/04/04 03:23:55;;;;;;;9.23;4.50;;;8.90;41.40;;;;;;5069738;28;21178;-50
2021/04/04 03:26:22;;;;;;;5.50;3.30;;;8.90;41.80;;;;;;5071510;28;20623;-50
2021/04/04 03:28:49;;;;;;;8.60;3.50;;;8.90;41.90;;;;;;5074920;28;20626;-51
2021/04/04 03:31:16;;;;;;;8.53;5.20;;;8.80;41.80;;;;;;5077046;28;20688;-51
2021/04/04 03:33:44;;;;;;;11.17;5.70;;;8.90;41.80;;;;;;5085389;28;20648;-50
2021/04/04 03:36:13;;;;;;;28.97;7.37;;;8.90;42.20;;;;;;5084648;28;20662;-51
2021/04/04 03:38:39;;;;;;;6.80;5.67;;;8.90;42.30;;;;;;5092665;28;21273;-51
2021/04/04 03:41:06;;;;;;;8.70;5.27;;;8.90;42.40;;;;;;5072239;28;20678;-51
2021/04/04 03:43:34;;;;;;;6.13;5.43;;;8.90;42.40;;;;;;5073295;28;20651;-50
2021/04/04 03:46:04;;;;;;;9.00;5.63;;;8.90;42.50;;;;;;5054609;28;20651;-50
2021/04/04 03:48:31;;;;;;;9.30;5.70;;;8.90;42.50;;;;;;5052824;28;20620;-50
2021/04/04 03:50:58;;;;;;;8.10;5.30;;;8.90;42.50;;;;;;5052969;28;20628;-51
2021/04/04 03:53:26;;;;;;;6.63;5.73;;;9.00;42.70;;;;;;5066368;28;20677;-50
2021/04/04 03:55:55;;;;;;;11.20;5.90;;;9.00;42.80;;;;;;5072423;28;21231;-51
2021/04/04 03:58:23;;;;;;;5.37;4.47;;;9.00;42.80;;;;;;5072893;28;20978;-51
2021/04/04 04:00:50;;;;;;;10.03;6.60;;;9.00;42.90;;;;;;5072528;28;20778;-51
2021/04/04 04:03:18;;;;;;;8.03;4.90;;;9.00;42.80;;;;;;5072640;28;20620;-51
2021/04/04 04:05:45;;;;;;;14.80;6.30;;;9.00;42.70;;;;;;5055618;28;20699;-51
2021/04/04 04:08:12;;;;;;;8.63;6.27;;;9.00;42.70;;;;;;5052168;28;20667;-51
2021/04/04 04:10:39;;;;;;;9.47;6.83;;;9.00;42.80;;;;;;5054143;28;20625;-51
2021/04/04 04:13:06;;;;;;;10.73;5.87;;;8.90;42.70;;;;;;5053564;28;20678;-52
2021/04/04 04:15:33;;;;;;;10.17;6.70;;;8.90;42.70;;;;;;5071883;28;20690;-51
2021/04/04 04:17:59;;;;;;;14.13;5.43;;;8.90;42.60;;;;;;5071991;28;20681;-51
2021/04/04 04:20:27;;;;;;;14.53;6.93;;;8.80;42.70;;;;;;5072568;28;20690;-51
2021/04/04 04:22:54;;;;;;;8.80;5.90;;;8.80;42.80;;;;;;5072209;28;20626;-51
2021/04/04 04:25:21;;;;;;;12.80;5.53;;;8.80;43.30;;;;;;5073107;28;20680;-51
2021/04/04 04:27:47;;;;;;;7.80;5.70;;;8.70;42.80;;;;;;5071639;28;20624;-51
2021/04/04 04:30:15;;;;;;;6.30;5.50;;;8.70;42.80;;;;;;5071761;28;20692;-51
2021/04/04 04:32:42;;;;;;;9.77;6.03;;;8.70;43.00;;;;;;5072097;28;20655;-51
2021/04/04 04:35:09;;;;;;;7.90;5.50;;;8.70;43.60;;;;;;5071900;28;20722;-51
2021/04/04 04:37:38;;;;;;;5.20;4.70;;;8.70;43.00;;;;;;5070746;28;20619;-51
2021/04/04 04:40:06;;;;;;;10.70;5.53;;;8.70;43.10;;;;;;5072184;28;20623;-51
2021/04/04 04:42:33;;;;;;;12.00;7.10;;;8.70;43.30;;;;;;5071824;28;20684;-51
2021/04/04 04:45:00;;;;;;;11.17;6.73;;;8.60;43.40;;;;;;5071873;28;20713;-52
2021/04/04 04:47:27;;;;;;;12.30;7.20;;;8.60;44.00;;;;;;5066994;28;20620;-52
2021/04/04 04:49:53;;;;;;;8.20;5.80;;;8.60;43.90;;;;;;5081937;28;20684;-52
2021/04/04 04:52:22;;;;;;;12.37;5.83;;;8.60;44.00;;;;;;5076511;28;20679;-52
2021/04/04 04:54:50;;;;;;;7.97;6.10;;;8.60;44.40;;;;;;5074857;28;20665;-52
2021/04/04 04:57:17;;;;;;;9.10;6.00;;;8.60;44.00;;;;;;5071149;28;20642;-52
2021/04/04 04:59:43;;;;;;;11.00;6.33;;;8.50;43.90;;;;;;5071021;28;20631;-52
2021/04/04 05:02:10;;;;;;;10.03;6.80;;;8.60;44.00;;;;;;5072058;28;20677;-51
2021/04/04 05:04:38;;;;;;;8.87;6.77;;;8.50;44.10;;;;;;5049638;28;21242;-51
2021/04/04 05:07:05;;;;;;;13.27;7.40;;;8.40;44.30;;;;;;5051144;28;20691;-51
2021/04/04 05:09:32;;;;;;;9.70;6.97;;;8.40;44.50;;;;;;5057144;28;21030;-52
2021/04/04 05:12:00;;;;;;;13.73;6.80;;;8.40;44.50;;;;;;5060771;28;20624;-51
2021/04/04 05:14:27;;;;;;;9.93;7.43;;;8.50;44.60;;;;;;5059549;28;20733;-51
2021/04/04 05:16:53;;;;;;;9.10;6.00;;;8.50;44.60;;;;;;5063321;28;20705;-51
2021/04/04 05:19:20;;;;;;;8.70;5.40;;;8.40;44.70;;;;;;5070853;28;20630;-51
2021/04/04 05:21:47;;;;;;;8.20;5.63;;;8.40;44.80;;;;;;5070722;28;20630;-52
2021/04/04 05:24:15;;;;;;;10.27;5.93;;;8.40;44.90;;;;;;5061360;28;20667;-51
2021/04/04 05:26:43;;;;;;;13.30;8.33;;;8.40;45.00;;;;;;5062415;28;20628;-52
2021/04/04 05:29:11;;;;;;;7.73;6.10;;;8.40;45.00;;;;;;5079152;28;20653;-52
2021/04/04 05:31:45;;;;;;;8.87;6.67;;;8.50;45.00;;;;;;5091819;28;20671;-52
2021/04/04 05:34:12;;;;;;;11.13;6.17;;;8.40;45.00;;;;;;5074167;28;20712;-52
2021/04/04 05:36:47;;;;;;;8.10;5.60;;;8.40;45.10;;;;;;5070515;28;20696;-52
2021/04/04 05:39:16;;;;;;;9.33;6.40;;;8.40;45.30;;;;;;5069055;28;20679;-52
2021/04/04 05:41:43;;;;;;;13.50;7.00;;;8.50;45.40;;;;;;5059111;28;20655;-52
2021/04/04 05:44:10;;;;;;;9.87;6.60;;;8.50;45.30;;;;;;5048651;28;20708;-52
2021/04/04 05:46:37;;;;;;;9.83;5.60;;;8.40;45.20;;;;;;5059932;28;20647;-52
2021/04/04 05:49:07;;;;;;;10.60;5.70;;;8.40;45.10;;;;;;5070531;28;20661;-52
2021/04/04 05:51:42;;;;;;;8.10;6.20;;;8.40;45.30;;;;;;5060932;28;20654;-52
2021/04/04 05:54:19;;;;;;;10.33;6.73;;;8.40;45.30;;;;;;5063261;28;20663;-52
2021/04/04 05:56:48;;;;;;;18.43;6.23;;;8.40;45.40;;;;;;5067511;28;20651;-52
2021/04/04 05:59:19;;;;;;;12.67;6.83;;;8.40;45.50;;;;;;5072425;28;20611;-51
2021/04/04 06:02:06;;;;;;;10.10;6.87;;;8.40;45.50;;;;;;5086440;28;21169;-51
2021/04/04 06:04:45;;;;;;;12.37;6.67;;;8.50;45.50;;;;;;5094541;28;20684;-51
2021/04/04 06:07:26;;;;;;;12.20;7.10;;;8.50;45.60;;;;;;5077488;28;20635;-51
2021/04/04 06:10:05;;;;;;;10.07;7.20;;;8.50;45.70;;;;;;5076459;28;20672;-51
2021/04/04 06:12:51;;;;;;;8.00;6.23;;;8.50;45.80;;;;;;5054846;28;20644;-51
2021/04/04 06:15:25;;;;;;;15.83;7.30;;;8.50;46.10;;;;;;5048366;28;20695;-51
2021/04/04 06:17:58;;;;;;;11.93;6.27;;;8.60;46.40;;;;;;5058804;28;20688;-51
2021/04/04 06:20:33;;;;;;;14.07;7.50;;;8.70;46.40;;;;;;5082659;28;20622;-52
2021/04/04 06:23:06;;;;;;;13.13;7.33;;;8.90;46.20;;;;;;5074523;28;20635;-52
2021/04/04 06:25:39;;;;;;;12.47;6.83;;;9.00;46.10;;;;;;5074636;28;21255;-52
2021/04/04 06:28:09;;;;;;;14.77;7.50;;;9.10;45.80;;;;;;5084609;28;20709;-52
2021/04/04 06:30:50;;;;;;;13.20;7.57;;;9.10;45.60;;;;;;5090245;28;20623;-51
2021/04/04 06:33:21;;;;;;;13.07;7.73;;;9.20;45.60;;;;;;5072444;28;20619;-51
2021/04/04 06:35:51;;;;;;;15.50;7.13;;;9.30;45.50;;;;;;5078281;28;20663;-51
2021/04/04 06:38:36;;;;;;;14.47;7.43;;;9.40;45.60;;;;;;5070870;28;20627;-50
2021/04/04 06:41:08;;;;;;;9.53;6.60;;;9.50;46.00;;;;;;5074862;28;20629;-51
2021/04/04 06:43:39;;;;;;;8.60;6.43;;;9.60;45.50;;;;;;5064046;28;20622;-51
2021/04/04 06:46:11;;;;;;;8.63;6.93;;;9.70;45.30;;;;;;5071957;28;20697;-50
2021/04/04 06:49:00;;;;;;;17.73;8.17;;;9.90;45.20;;;;;;5074911;28;21238;-50
2021/04/04 06:51:33;;;;;;;10.97;6.40;;;10.00;44.20;;;;;;5082123;28;20620;-51
2021/04/04 06:54:11;;;;;;;10.33;6.90;;;10.10;44.10;;;;;;5076100;28;20633;-50
2021/04/04 06:56:46;;;;;;;9.57;7.33;;;10.30;44.10;;;;;;5072779;28;20680;-51
2021/04/04 06:59:16;;;;;;;11.93;7.63;;;10.40;43.90;;;;;;5078729;28;20681;-50
2021/04/04 07:01:55;;;;;;;10.37;7.30;;;10.60;44.20;;;;;;5075561;28;21111;-50
2021/04/04 07:04:23;;;;;;;12.53;7.47;;;10.70;43.60;;;;;;5068685;28;20643;-50
2021/04/04 07:07:24;;;;;;;12.00;8.47;;;10.80;43.50;;;;;;5072596;28;20619;-50
2021/04/04 07:10:25;;;;;;;8.63;7.00;;;11.00;43.40;;;;;;5060080;28;20634;-50
2021/04/04 07:13:19;;;;;;;13.20;7.63;;;11.20;43.20;;;;;;5031833;28;21253;-50
2021/04/04 07:15:53;;;;;;;15.53;9.40;;;11.30;43.00;;;;;;5050751;28;20703;-50
2021/04/04 07:18:33;;;;;;;17.00;7.70;;;11.40;42.90;;;;;;5063906;28;20687;-50
2021/04/04 07:21:06;;;;;;;13.43;8.57;;;11.60;42.90;;;;;;5043377;28;21036;-50
2021/04/04 07:23:52;;;;;;;12.17;7.80;;;11.80;42.80;;;;;;5061492;28;20628;-50
2021/04/04 07:26:26;;;;;;;9.00;7.50;;;11.90;42.40;;;;;;5065977;28;21222;-50
2021/04/04 07:28:58;;;;;;;11.70;7.40;;;12.10;42.00;;;;;;5056207;28;20643;-50
2021/04/04 07:31:26;;;;;;;10.60;6.97;;;12.20;41.90;;;;;;5071804;28;20627;-50
2021/04/04 07:33:57;;;;;;;11.23;7.47;;;12.40;41.80;;;;;;5074491;28;20609;-51
2021/04/04 07:36:30;;;;;;;10.27;8.50;;;12.50;41.40;;;;;;5071198;28;20763;-51
2021/04/04 07:38:59;;;;;;;10.73;8.60;;;12.60;41.40;;;;;;5079991;28;21202;-51
2021/04/04 07:41:31;;;;;;;15.57;8.90;;;12.70;41.80;;;;;;5071195;28;20656;-52
2021/04/04 07:44:00;;;;;;;12.90;8.70;;;12.80;41.20;;;;;;5087076;28;20624;-50
2021/04/04 07:46:32;;;;;;;13.47;7.73;;;12.90;41.10;;;;;;5082768;28;20617;-50
2021/04/04 07:49:09;;;;;;;9.47;7.43;;;12.90;41.10;;;;;;5092048;28;20689;-50
2021/04/04 07:51:38;;;;;;;13.70;7.90;;;13.00;41.20;;;;;;5092396;28;20628;-50
2021/04/04 07:54:07;;;;;;;13.07;7.37;;;13.10;41.20;;;;;;5076831;28;20630;-50
2021/04/04 07:56:38;;;;;;;12.93;7.83;;;13.30;40.90;;;;;;5071161;28;20657;-50
2021/04/04 07:59:10;;;;;;;10.63;7.07;;;13.40;40.70;;;;;;5069195;28;20686;-51
2021/04/04 08:01:38;;;;;;;11.47;7.77;;;13.50;40.50;;;;;;5083474;28;20685;-51
2021/04/04 08:04:09;;;;;;;13.60;9.07;;;13.70;40.20;;;;;;5077989;28;21023;-50
2021/04/04 08:06:38;;;;;;;12.97;7.60;;;13.90;40.20;;;;;;5064929;28;20674;-50
2021/04/04 08:09:11;;;;;;;15.17;8.40;;;14.10;39.90;;;;;;5071799;28;20637;-50
2021/04/04 08:11:45;;;;;;;11.00;8.83;;;14.40;39.50;;;;;;5071045;28;20633;-51
2021/04/04 08:14:14;;;;;;;18.97;8.30;;;14.50;39.10;;;;;;5068226;28;20730;-51
2021/04/04 08:16:43;;;;;;;13.93;7.50;;;14.50;38.80;;;;;;5062087;28;20662;-50
2021/04/04 08:19:11;;;;;;;15.67;7.83;;;14.50;38.60;;;;;;5070603;28;21103;-51
2021/04/04 08:21:39;;;;;;;10.60;7.40;;;14.50;38.50;;;;;;5065653;28;20625;-51
2021/04/04 08:24:07;;;;;;;14.30;9.20;;;14.60;38.50;;;;;;5079109;28;20675;-51
2021/04/04 08:26:36;;;;;;;14.40;8.37;;;14.60;38.30;;;;;;5070056;28;20660;-51
2021/04/04 08:29:05;;;;;;;14.77;9.30;;;14.60;38.40;;;;;;5084104;28;20677;-51
2021/04/04 08:31:35;;;;;;;12.37;7.90;;;14.70;38.40;;;;;;5074769;28;20633;-51
2021/04/04 08:34:03;;;;;;;15.57;8.40;;;14.80;38.30;;;;;;5067974;28;20679;-51
2021/04/04 08:36:31;;;;;;;11.50;7.40;;;15.00;38.20;;;;;;5075085;28;20722;-51
2021/04/04 08:38:59;;;;;;;11.67;8.70;;;15.20;38.00;;;;;;5082357;28;21170;-51
2021/04/04 08:41:26;;;;;;;17.40;12.10;;;15.40;37.30;;;;;;5071699;28;21188;-51
2021/04/04 08:43:57;;;;;;;10.70;8.10;;;15.50;36.90;;;;;;5071168;28;20659;-51
2021/04/04 08:46:28;;;;;;;15.27;8.87;;;15.50;36.70;;;;;;5064397;28;20621;-51
2021/04/04 08:48:55;;;;;;;11.13;8.40;;;15.50;36.70;;;;;;5067595;28;21258;-51
2021/04/04 08:51:25;;;;;;;20.87;9.53;;;15.60;36.40;;;;;;5076223;28;20699;-50
2021/04/04 08:53:53;;;;;;;14.67;8.77;;;15.70;36.40;;;;;;5067609;28;20664;-51
2021/04/04 08:56:20;;;;;;;14.90;8.70;;;15.70;36.00;;;;;;5067389;28;20699;-51
2021/04/04 08:58:48;;;;;;;12.17;8.70;;;15.80;35.90;;;;;;5078426;28;20674;-51
2021/04/04 09:01:19;;;;;;;16.30;8.87;;;16.00;35.70;;;;;;5075918;28;20629;-52
2021/04/04 09:03:49;;;;;;;12.60;8.90;;;16.00;35.70;;;;;;5072843;28;20637;-51
2021/04/04 09:06:16;;;;;;;13.87;7.40;;;16.00;35.60;;;;;;5077372;28;20968;-51
2021/04/04 09:08:42;;;;;;;13.30;7.97;;;16.00;35.60;;;;;;5065529;28;20940;-51
2021/04/04 09:11:10;;;;;;;14.43;8.80;;;16.10;35.20;;;;;;5078058;28;20698;-52
2021/04/04 09:13:37;;;;;;;19.63;7.80;;;16.10;34.80;;;;;;5064846;28;20674;-52
2021/04/04 09:16:08;;;;;;;19.37;9.40;;;16.10;34.70;;;;;;5077239;28;20946;-52
2021/04/04 09:18:42;;;;;;;13.60;9.13;;;16.00;35.10;;;;;;5065939;28;20625;-52
2021/04/04 09:21:09;;;;;;;13.03;9.10;;;16.00;35.20;;;;;;5071757;28;21239;-52
2021/04/04 09:23:37;;;;;;;11.63;8.53;;;16.00;35.20;;;;;;5071629;28;20621;-51
2021/04/04 09:26:05;;;;;;;22.20;10.10;;;15.90;35.20;;;;;;5065789;28;20646;-51
2021/04/04 09:28:35;;;;;;;16.00;7.27;;;16.00;35.00;;;;;;5074036;28;20632;-50
2021/04/04 09:31:02;;;;;;;9.97;7.93;;;16.10;34.70;;;;;;5071167;28;20629;-50
2021/04/04 09:33:30;;;;;;;10.70;9.17;;;16.30;34.70;;;;;;5059026;28;20960;-51
2021/04/04 09:35:58;;;;;;;12.00;8.10;;;16.50;34.50;;;;;;5078386;28;21243;-52
2021/04/04 09:38:28;;;;;;;17.20;8.97;;;16.60;34.40;;;;;;5070355;28;21030;-50
2021/04/04 09:40:55;;;;;;;17.93;10.20;;;16.80;34.10;;;;;;5077636;28;20672;-51
2021/04/04 09:43:22;;;;;;;13.43;9.30;;;17.00;34.10;;;;;;5075686;28;20635;-51
2021/04/04 09:45:50;;;;;;;11.60;8.30;;;17.10;33.80;;;;;;5074473;28;21180;-51
2021/04/04 09:48:18;;;;;;;13.67;9.10;;;17.40;33.80;;;;;;5077125;28;20701;-52
2021/04/04 09:50:45;;;;;;;12.63;8.43;;;17.40;33.30;;;;;;5070499;28;21040;-52
2021/04/04 09:53:12;;;;;;;12.23;8.47;;;17.40;33.00;;;;;;5079610;28;20634;-51
2021/04/04 09:55:44;;;;;;;13.57;8.73;;;17.30;32.60;;;;;;5065852;28;20665;-51
2021/04/04 09:58:11;;;;;;;12.10;8.13;;;17.10;32.70;;;;;;5073870;28;20617;-52
2021/04/04 10:00:38;;;;;;;15.40;8.40;;;17.10;33.20;;;;;;5078669;28;20613;-50
2021/04/04 10:03:16;;;;;;;13.23;8.77;;;17.10;33.10;;;;;;5078157;28;20633;-51
2021/04/04 10:05:43;;;;;;;12.20;8.20;;;17.20;33.40;;;;;;5070939;28;20649;-52
2021/04/04 10:08:12;;;;;;;11.00;8.43;;;17.40;32.70;;;;;;5080677;28;20633;-52
2021/04/04 10:10:40;;;;;;;11.47;8.00;;;17.60;32.70;;;;;;5060772;28;21103;-52
2021/04/04 10:13:07;;;;;;;13.47;9.33;;;17.60;32.40;;;;;;5069997;28;20686;-51
2021/04/04 10:15:39;;;;;;;12.27;9.33;;;17.80;32.10;;;;;;5083670;28;20648;-52
2021/04/04 10:18:06;;;;;;;11.93;9.53;;;17.90;31.90;;;;;;5084417;28;20656;-52
2021/04/04 10:20:35;;;;;;;13.60;10.70;;;18.10;31.50;;;;;;5079852;28;20617;-52
2021/04/04 10:23:02;;;;;;;17.77;11.67;;;18.20;31.10;;;;;;5069384;28;20650;-52
2021/04/04 10:25:29;;;;;;;12.90;9.03;;;18.30;31.10;;;;;;5077087;28;20654;-52
2021/04/04 10:28:01;;;;;;;13.17;9.97;;;18.60;31.00;;;;;;5065586;28;20625;-52
2021/04/04 10:30:29;;;;;;;19.07;11.10;;;18.90;30.90;;;;;;5063248;28;20626;-52
2021/04/04 10:32:56;;;;;;;14.77;10.07;;;19.30;30.20;;;;;;5066321;28;20617;-50
2021/04/04 10:35:30;;;;;;;15.63;10.60;;;19.70;30.20;;;;;;5063643;28;20661;-51
2021/04/04 10:38:04;;;;;;;13.40;9.30;;;20.10;29.60;;;;;;5063592;28;20724;-52
2021/04/04 10:40:45;;;;;;;14.23;10.97;;;20.40;28.90;;;;;;5062733;28;20629;-51
2021/04/04 10:43:12;;;;;;;13.93;10.63;;;20.00;28.00;;;;;;5091722;22;21208;-51
2021/04/04 10:45:55;;;;;;;18.43;11.17;;;19.60;28.40;;;;;;5089322;28;20657;-51
2021/04/04 10:48:21;;;;;;;11.83;9.67;;;19.20;28.70;;;;;;5088104;28;20690;-51
2021/04/04 10:50:48;;;;;;;16.13;12.67;;;18.80;29.10;;;;;;5090972;28;20689;-51
2021/04/04 10:53:17;;;;;;;19.10;10.17;;;18.10;29.70;;;;;;5095664;28;21426;-51
2021/04/04 10:55:44;;;;;;;13.70;11.70;;;17.60;30.40;;;;;;5090467;28;20643;-51
2021/04/04 10:58:14;;;;;;;16.10;11.33;;;17.30;31.00;;;;;;5108343;28;20654;-51
2021/04/04 11:00:42;;;;;;;16.07;11.03;;;17.20;31.70;;;;;;5096889;28;20697;-50
2021/04/04 11:03:09;;;;;;;11.73;10.50;;;17.70;31.60;;;;;;5092029;28;20795;-52
2021/04/04 11:05:36;;;;;;;15.20;9.40;;;17.80;30.50;;;;;;5092022;28;20627;-53
2021/04/04 11:08:03;;;;;;;11.50;9.17;;;17.70;30.60;;;;;;5091241;28;20624;-53
2021/04/04 11:10:31;;;;;;;16.20;10.10;;;17.40;30.90;;;;;;5092296;28;20632;-57
2021/04/04 11:12:58;;;;;;;15.80;11.43;;;17.10;31.10;;;;;;5092015;28;20664;-55
2021/04/04 11:15:25;;;;;;;13.90;9.17;;;16.80;31.50;;;;;;5092402;28;20682;-52
2021/04/04 11:17:52;;;;;;;13.43;10.20;;;16.50;31.80;;;;;;5073938;28;20668;-53
2021/04/04 11:20:19;;;;;;;12.43;10.67;;;16.50;32.30;;;;;;5073785;28;20620;-53
2021/04/04 11:22:46;;;;;;;17.00;11.03;;;16.50;32.50;;;;;;5090347;28;20744;-53
2021/04/04 11:25:17;;;;;;;15.37;10.20;;;16.40;32.60;;;;;;5091940;28;20681;-53
2021/04/04 11:27:45;;;;;;;12.00;9.00;;;16.30;32.40;;;;;;5091671;28;20623;-53
2021/04/04 11:30:14;;;;;;;15.43;12.50;;;16.30;32.50;;;;;;5090926;28;20608;-54
2021/04/04 11:32:42;;;;;;;16.67;11.23;;;16.20;32.50;;;;;;5086875;28;20664;-54
2021/04/04 11:35:10;;;;;;;16.20;11.90;;;16.20;32.60;;;;;;5076410;28;20636;-54
2021/04/04 11:37:44;;;;;;;15.97;9.50;;;16.20;32.70;;;;;;5100550;28;20741;-53
2021/04/04 11:40:15;;;;;;;14.63;10.53;;;16.10;32.90;;;;;;5097408;28;21425;-54
2021/04/04 11:42:42;;;;;;;11.87;9.40;;;16.00;33.10;;;;;;5091035;28;20655;-54
2021/04/04 11:45:11;;;;;;;18.33;10.30;;;16.20;33.10;;;;;;5090852;28;20632;-54
2021/04/04 11:47:37;;;;;;;12.73;10.30;;;16.60;32.70;;;;;;5090195;28;20616;-52
2021/04/04 11:50:22;;;;;;;14.93;9.40;;;16.80;32.10;;;;;;5088004;28;21264;-54
2021/04/04 11:52:49;;;;;;;10.20;9.20;;;17.10;31.10;;;;;;5100233;28;20781;-52
2021/04/04 11:55:17;;;;;;;12.70;9.23;;;17.40;30.80;;;;;;5090737;28;20766;-51
2021/04/04 11:57:45;;;;;;;12.20;9.30;;;17.60;29.70;;;;;;5089210;28;20717;-50
2021/04/04 12:00:24;;;;;;;17.70;10.73;;;17.60;29.70;;;;;;5090525;28;20677;-51
2021/04/04 12:03:02;;;;;;;15.13;9.57;;;17.60;29.80;;;;;;5090293;28;20651;-51
2021/04/04 12:05:34;;;;;;;16.20;10.37;;;17.50;30.00;;;;;;5089204;28;20681;-51
2021/04/04 12:08:01;;;;;;;15.03;10.30;;;17.40;30.00;;;;;;5095727;28;21195;-51
2021/04/04 12:10:29;;;;;;;12.20;10.27;;;17.20;30.50;;;;;;5108052;28;20631;-52
2021/04/04 12:12:55;;;;;;;12.17;9.97;;;17.00;31.00;;;;;;5110265;28;20715;-51
2021/04/04 12:15:24;;;;;;;11.13;10.03;;;16.90;31.30;;;;;;5110933;28;21017;-52
2021/04/04 12:17:51;;;;;;;19.43;12.03;;;16.90;31.30;;;;;;5103131;28;20664;-52
2021/04/04 12:20:21;;;;;;;23.73;11.13;;;17.20;31.40;;;;;;5089859;28;20777;-51
2021/04/04 12:22:47;;;;;;;10.80;8.63;;;17.40;30.90;;;;;;5104778;28;20652;-53
2021/04/04 12:25:15;;;;;;;11.20;8.40;;;17.70;30.80;;;;;;5079808;28;20693;-52
2021/04/04 12:27:43;;;;;;;14.00;9.00;;;17.90;30.00;;;;;;5069837;28;20686;-52
2021/04/04 12:30:23;;;;;;;10.87;7.97;;;18.00;29.90;;;;;;5069666;28;21224;-53
2021/04/04 12:32:58;;;;;;;12.17;9.10;;;18.10;29.50;;;;;;5085017;28;20652;-51
2021/04/04 12:35:26;;;;;;;11.60;8.57;;;18.10;29.50;;;;;;5081038;28;21118;-52
2021/04/04 12:37:53;;;;;;;14.23;11.57;;;18.00;29.70;;;;;;5090825;28;20754;-51
2021/04/04 12:40:20;;;;;;;18.37;9.07;;;17.80;30.00;;;;;;5089320;28;20716;-52
2021/04/04 12:42:46;;;;;;;13.60;9.60;;;17.60;30.20;;;;;;5089645;28;20733;-52
2021/04/04 12:45:14;;;;;;;18.83;9.83;;;17.50;31.00;;;;;;5092220;28;20627;-53
2021/04/04 12:47:43;;;;;;;12.63;9.87;;;17.50;30.70;;;;;;5094838;28;20659;-53
2021/04/04 12:50:11;;;;;;;15.30;9.87;;;17.50;30.60;;;;;;5092682;28;20640;-53
2021/04/04 12:52:39;;;;;;;13.00;8.80;;;17.60;30.60;;;;;;5101751;28;20632;-52
2021/04/04 12:55:17;;;;;;;11.93;9.23;;;17.60;30.20;;;;;;5092055;28;20655;-53